CheckWX is a tool to help pilots better visualize weather data.  It is not intended as a substitute for an official pre-flight weather briefing.

09:19:20 UTC

KGUS TAF
Grissom ARB Airport
Peru, Indiana, USA
TAF KGUS 220300Z 2203/2309 19010KT 9999 SCT013 QNH3035INS BECMG 2215/2216 20012G18KT 9999 SCT200 QNH3021INS BECMG 2221/2222 19010KT 9999 FEW050 BKN095 QNH3015INS TX00/2221Z TNM08/2205Z

Jan-22@
03:00 UTC

Jan-22 @ 03:00 UTC

Jan-22@
15:00 UTC

Jan-22 @ 15:00 UTC

TAF KGUS 220300Z 2203/2309 19010KT 9999 SCT013 QNH3035INS
Wind
  • 190° at 10 KTS
Cloud Levels
  • Scattered at 1,300' AGL

Jan-22@
15:00 UTC

Jan-22 @ 15:00 UTC

Jan-22@
21:00 UTC

Jan-22 @ 21:00 UTC

BECMG 2215/2216 20012G18KT 9999 SCT200 QNH3021INS

Becoming

Becoming Conditions expected by Wed, Jan 22, 2020 @ 16:00 UTC

Wind
  • 200° at 12 KTS
  • {Gusting to 18 KTS
Cloud Levels
  • Scattered at 20,000' AGL

Jan-22@
21:00 UTC

Jan-22 @ 21:00 UTC

Jan-23@
09:00 UTC

Jan-23 @ 09:00 UTC

BECMG 2221/2222 19010KT 9999 FEW050 BKN095 QNH3015INS TX00/2221Z TNM08/2205Z

Becoming

Becoming Conditions expected by Wed, Jan 22, 2020 @ 22:00 UTC

Wind
  • 190° at 10 KTS
Cloud Levels
  • Few at 5,000' AGL
  • Broken at 9,500' AGL